createdAt,value
2022-09-12T00:02:19.651Z,3.77
2022-09-12T00:05:22.650Z,3.33
2022-09-12T00:08:24.347Z,3.57
2022-09-12T00:11:26.516Z,3.43
2022-09-12T00:14:28.193Z,3.53
2022-09-12T00:17:29.879Z,3.03
2022-09-12T00:20:31.614Z,2.77
2022-09-12T00:23:33.369Z,2.70
2022-09-12T00:26:36.025Z,2.97
2022-09-12T00:29:37.728Z,3.37
2022-09-12T00:32:39.384Z,3.20
2022-09-12T00:35:46.859Z,2.87
2022-09-12T00:38:49.370Z,3.47
2022-09-12T00:41:51.545Z,3.67
2022-09-12T00:44:53.821Z,2.97
2022-09-12T00:48:00.914Z,3.40
2022-09-12T00:51:02.956Z,3.23
2022-09-12T00:54:09.435Z,3.10
2022-09-12T00:57:13.151Z,3.40
2022-09-12T01:00:18.636Z,3.17
2022-09-12T01:03:23.108Z,2.90
2022-09-12T01:06:35.195Z,2.93
2022-09-12T01:09:37.807Z,3.40
2022-09-12T01:12:42.289Z,2.63
2022-09-12T01:15:44.018Z,2.53
2022-09-12T01:18:48.423Z,3.10
2022-09-12T01:22:16.033Z,3.00
2022-09-12T01:25:38.951Z,3.57
2022-09-12T01:28:59.341Z,2.77
2022-09-12T01:32:25.946Z,3.27
2022-09-12T01:35:55.081Z,3.93
2022-09-12T01:39:04.053Z,2.70
2022-09-12T01:42:13.684Z,3.50
2022-09-12T01:45:18.365Z,3.30
2022-09-12T01:48:27.359Z,3.80
2022-09-12T01:51:38.327Z,3.60
2022-09-12T01:54:57.629Z,5.13
2022-09-12T01:58:22.508Z,3.53
2022-09-12T02:01:30.648Z,4.40
2022-09-12T02:04:38.783Z,3.60
2022-09-12T02:07:54.334Z,3.30
2022-09-12T02:11:07.687Z,3.80
2022-09-12T02:14:17.809Z,3.40
2022-09-12T02:17:22.764Z,3.47
2022-09-12T02:20:47.348Z,3.83
2022-09-12T02:23:57.201Z,3.70
2022-09-12T02:27:11.268Z,3.20
2022-09-12T02:30:17.532Z,2.93
2022-09-12T02:33:30.888Z,3.00
2022-09-12T02:36:41.401Z,3.53
2022-09-12T02:39:46.848Z,3.13
2022-09-12T02:42:49.124Z,2.97
2022-09-12T02:45:51.369Z,3.47
2022-09-12T02:48:54.202Z,3.47
2022-09-12T02:51:56.219Z,3.67
2022-09-12T02:54:58.529Z,3.00
2022-09-12T02:58:06.280Z,3.67
2022-09-12T03:01:35.320Z,4.20
2022-09-12T03:04:58.197Z,4.73
2022-09-12T03:08:14.840Z,4.60
2022-09-12T03:11:53.691Z,3.90
2022-09-12T03:15:01.780Z,4.27
2022-09-12T03:18:24.307Z,4.47
2022-09-12T03:21:29.037Z,4.70
2022-09-12T03:24:37.915Z,4.43
2022-09-12T03:27:49.390Z,4.43
2022-09-12T03:30:53.399Z,4.87
2022-09-12T03:33:55.168Z,5.60
2022-09-12T03:36:56.863Z,5.30
2022-09-12T03:39:58.558Z,5.47
2022-09-12T03:43:00.340Z,5.73
2022-09-12T03:46:02.167Z,5.77
2022-09-12T03:49:04.070Z,5.40
2022-09-12T03:52:05.794Z,5.27
2022-09-12T03:55:07.782Z,5.13
2022-09-12T03:58:09.746Z,6.13
2022-09-12T04:01:14.450Z,5.27
2022-09-12T04:04:16.143Z,5.80
2022-09-12T04:07:17.888Z,6.80
2022-09-12T04:10:20.001Z,6.63
2022-09-12T04:13:21.660Z,6.63
2022-09-12T04:16:23.501Z,6.37
2022-09-12T04:19:26.239Z,5.27
2022-09-12T04:22:29.789Z,6.40
2022-09-12T04:25:31.703Z,6.63
2022-09-12T04:28:36.074Z,6.37
2022-09-12T04:31:38.298Z,7.17
2022-09-12T04:34:39.956Z,6.40
2022-09-12T04:37:41.665Z,7.30
2022-09-12T04:40:43.374Z,7.23
2022-09-12T04:43:48.897Z,6.13
2022-09-12T04:46:50.620Z,6.63
2022-09-12T04:49:52.379Z,7.13
2022-09-12T04:52:54.515Z,6.40
2022-09-12T04:55:56.163Z,6.33
2022-09-12T04:59:00.429Z,5.93
2022-09-12T05:02:02.640Z,5.93
2022-09-12T05:05:04.759Z,5.97
2022-09-12T05:08:06.568Z,5.70
2022-09-12T05:11:12.732Z,5.63
2022-09-12T05:14:14.459Z,5.60
2022-09-12T05:17:16.249Z,6.60
2022-09-12T05:20:19.464Z,5.87
2022-09-12T05:23:21.832Z,6.43
2022-09-12T05:26:24.137Z,5.10
2022-09-12T05:29:26.005Z,6.33
2022-09-12T05:32:31.682Z,5.93
2022-09-12T05:35:33.357Z,5.03
2022-09-12T05:38:35.610Z,5.17
2022-09-12T05:41:37.660Z,5.13
2022-09-12T05:44:39.337Z,6.67
2022-09-12T05:47:41.899Z,6.73
2022-09-12T05:50:43.649Z,6.90
2022-09-12T05:53:47.451Z,7.07
2022-09-12T05:56:49.192Z,8.03
2022-09-12T05:59:50.892Z,8.10
2022-09-12T06:02:53.425Z,7.80
2022-09-12T06:05:55.266Z,7.13
2022-09-12T06:09:02.006Z,7.03
2022-09-12T06:12:04.113Z,7.50
2022-09-12T06:15:06.385Z,9.03
2022-09-12T06:18:08.043Z,8.67
2022-09-12T06:21:11.952Z,8.17
2022-09-12T06:24:13.955Z,8.90
2022-09-12T06:27:16.093Z,7.93
2022-09-12T06:30:20.329Z,8.70
2022-09-12T06:33:23.996Z,9.13
2022-09-12T06:36:29.346Z,8.57
2022-09-12T06:39:32.499Z,8.47
2022-09-12T06:42:34.438Z,8.23
2022-09-12T06:45:36.289Z,8.90
2022-09-12T06:48:41.713Z,9.43
2022-09-12T06:51:44.362Z,7.27
2022-09-12T06:54:47.408Z,8.33
2022-09-12T06:57:49.250Z,8.80
2022-09-12T07:00:53.970Z,8.37
2022-09-12T07:04:00.186Z,8.37
2022-09-12T07:07:01.869Z,8.80
2022-09-12T07:10:04.023Z,8.00
2022-09-12T07:13:05.693Z,8.50
2022-09-12T07:16:08.511Z,8.53
2022-09-12T07:19:10.519Z,8.87
2022-09-12T07:22:12.216Z,8.17
2022-09-12T07:25:13.943Z,8.57
2022-09-12T07:28:15.595Z,8.33
2022-09-12T07:31:19.134Z,8.97
2022-09-12T07:34:20.833Z,8.50
2022-09-12T07:37:22.485Z,8.20
2022-09-12T07:40:24.251Z,9.40
2022-09-12T07:43:25.951Z,8.87
2022-09-12T07:46:29.570Z,8.43
2022-09-12T07:49:31.260Z,8.03
2022-09-12T07:52:32.916Z,7.87
2022-09-12T07:55:34.590Z,8.27
2022-09-12T07:58:37.983Z,8.43
2022-09-12T08:01:40.103Z,9.03
2022-09-12T08:04:42.131Z,8.70
2022-09-12T08:07:43.895Z,8.17
2022-09-12T08:10:45.619Z,7.87
2022-09-12T08:13:52.966Z,8.50
2022-09-12T08:16:56.678Z,7.90
2022-09-12T08:19:58.830Z,8.43
2022-09-12T08:28:41.488Z,8.53
2022-09-12T08:31:43.303Z,7.87
2022-09-12T08:34:44.938Z,8.93
2022-09-12T08:37:46.560Z,9.47
2022-09-12T08:45:43.136Z,9.00
2022-09-12T08:48:46.658Z,9.20
2022-09-12T08:51:48.563Z,8.57
2022-09-12T08:54:50.608Z,8.83
2022-09-12T08:57:53.065Z,8.10
2022-09-12T09:00:59.338Z,6.93
2022-09-12T09:04:18.781Z,9.40
2022-09-12T09:07:37.177Z,8.90
2022-09-12T09:10:48.731Z,8.67
2022-09-12T09:14:20.477Z,8.23
2022-09-12T09:17:40.826Z,9.63
2022-09-12T09:20:55.114Z,8.93
2022-09-12T09:24:10.167Z,8.80
2022-09-12T09:27:36.983Z,9.37
2022-09-12T09:30:37.661Z,9.63
2022-09-12T09:33:39.323Z,9.70
2022-09-12T09:36:54.195Z,8.43
2022-09-12T09:40:17.352Z,9.13
2022-09-12T09:43:24.349Z,8.40
2022-09-12T09:46:27.330Z,8.23
2022-09-12T09:49:33.215Z,8.20
2022-09-12T09:52:36.060Z,8.93
2022-09-12T09:55:42.270Z,8.03
2022-09-12T09:58:43.920Z,9.77
2022-09-12T10:01:54.761Z,9.07
2022-09-12T10:04:58.671Z,8.73
2022-09-12T10:08:00.396Z,10.03
2022-09-12T10:11:17.204Z,8.40
2022-09-12T10:14:43.521Z,8.03
2022-09-12T10:17:48.191Z,8.43
2022-09-12T10:20:49.925Z,7.60
2022-09-12T10:24:00.028Z,6.68
2022-09-12T10:27:15.839Z,7.13
2022-09-12T10:30:20.207Z,7.22
2022-09-12T10:33:25.716Z,8.57
2022-09-12T10:36:38.386Z,7.03
2022-09-12T10:39:40.133Z,6.47
2022-09-12T10:42:52.740Z,6.82
2022-09-12T10:45:59.350Z,6.47
2022-09-12T10:49:24.189Z,6.03
2022-09-12T10:52:27.283Z,5.53
2022-09-12T10:55:34.820Z,5.85
2022-09-12T10:59:05.731Z,5.32
2022-09-12T11:02:35.083Z,5.10
2022-09-12T11:05:48.376Z,5.47
2022-09-12T11:09:19.184Z,4.68
2022-09-12T11:12:30.968Z,4.85
2022-09-12T11:15:53.375Z,5.13
2022-09-12T11:24:01.475Z,5.22
2022-09-12T11:27:03.084Z,3.72
2022-09-12T11:35:05.133Z,3.43
2022-09-12T11:38:29.223Z,2.90
2022-09-12T11:42:05.988Z,2.33
2022-09-12T11:45:17.485Z,2.80
2022-09-12T11:48:28.183Z,2.78
2022-09-12T11:51:43.983Z,3.20
2022-09-12T11:55:03.681Z,3.00
2022-09-12T11:58:08.450Z,2.63
2022-09-12T12:01:17.815Z,3.20
2022-09-12T12:04:27.680Z,2.60
2022-09-12T12:07:45.526Z,2.40
2022-09-12T12:10:59.674Z,2.22
2022-09-12T12:14:19.458Z,2.30
2022-09-12T12:17:24.017Z,2.03
2022-09-12T12:20:27.181Z,2.37
2022-09-12T12:23:35.254Z,1.92
2022-09-12T12:26:42.712Z,2.42
2022-09-12T12:29:44.813Z,1.97
2022-09-12T12:32:46.450Z,1.90
2022-09-12T12:36:09.211Z,2.28
2022-09-12T12:39:33.564Z,2.00
2022-09-12T12:42:35.212Z,2.10
2022-09-12T12:45:36.829Z,1.57
2022-09-12T12:49:00.483Z,1.83
2022-09-12T12:52:02.439Z,1.63
2022-09-12T12:55:04.828Z,1.75
2022-09-12T12:58:21.809Z,1.33
2022-09-12T13:01:23.810Z,1.52
2022-09-12T13:04:29.900Z,1.55
2022-09-12T13:07:40.875Z,1.70
2022-09-12T13:10:59.559Z,1.92
2022-09-12T13:14:04.560Z,1.90
2022-09-12T13:17:07.704Z,1.83
2022-09-12T13:20:28.371Z,1.70
2022-09-12T13:23:32.461Z,1.30
2022-09-12T13:26:40.181Z,1.75
2022-09-12T13:29:42.386Z,1.60
2022-09-12T13:32:44.378Z,1.80
2022-09-12T13:36:28.141Z,1.60
2022-09-12T13:39:37.005Z,1.73
2022-09-12T13:42:42.455Z,1.73
2022-09-12T13:45:46.898Z,1.33
2022-09-12T13:48:48.871Z,1.70
2022-09-12T13:52:03.057Z,1.20
2022-09-12T13:55:25.160Z,1.63
2022-09-12T13:58:29.629Z,1.35
2022-09-12T14:01:57.550Z,1.40
2022-09-12T14:05:11.362Z,1.20
2022-09-12T14:08:15.240Z,1.50
2022-09-12T14:11:28.296Z,1.50
2022-09-12T14:14:40.412Z,1.75
2022-09-12T14:17:51.662Z,1.65
2022-09-12T14:20:57.357Z,1.65
2022-09-12T14:24:00.749Z,1.50
2022-09-12T14:27:02.545Z,1.40
2022-09-12T14:30:21.592Z,1.77
2022-09-12T14:33:23.249Z,1.83
2022-09-12T14:36:35.487Z,1.70
2022-09-12T14:39:43.931Z,1.48
2022-09-12T14:42:49.516Z,1.55
2022-09-12T14:46:00.234Z,1.40
2022-09-12T14:49:34.925Z,1.55
2022-09-12T14:52:37.871Z,1.83
2022-09-12T14:55:46.299Z,1.73
2022-09-12T14:58:48.974Z,1.77
2022-09-12T15:01:50.657Z,1.90
2022-09-12T15:05:23.279Z,1.63
2022-09-12T15:08:25.384Z,1.70
2022-09-12T15:11:27.078Z,1.27
2022-09-12T15:14:28.715Z,1.63
2022-09-12T15:17:30.344Z,1.77
2022-09-12T15:20:43.482Z,1.33
2022-09-12T15:23:49.989Z,1.75
2022-09-12T15:26:51.612Z,1.38
2022-09-12T15:29:53.732Z,1.40
2022-09-12T15:32:55.602Z,1.50
2022-09-12T15:35:57.234Z,1.23
2022-09-12T15:38:58.932Z,1.42
2022-09-12T15:42:00.597Z,1.35
2022-09-12T15:45:04.766Z,1.42
2022-09-12T15:48:06.545Z,1.60
2022-09-12T15:51:15.392Z,1.20
2022-09-12T15:54:18.262Z,1.17
2022-09-12T15:57:19.946Z,1.23
2022-09-12T16:00:22.645Z,1.55
2022-09-12T16:03:58.721Z,1.40
2022-09-12T16:07:00.585Z,1.20
2022-09-12T16:10:02.271Z,1.10
2022-09-12T16:13:04.421Z,1.55
2022-09-12T16:16:07.571Z,1.77
2022-09-12T16:19:10.549Z,1.65
2022-09-12T16:22:12.192Z,1.20
2022-09-12T16:25:13.878Z,1.50
2022-09-12T16:28:15.776Z,1.13
2022-09-12T16:39:59.626Z,1.27
2022-09-12T16:43:01.695Z,1.90
2022-09-12T16:46:05.953Z,1.35
2022-09-12T16:49:20.121Z,1.70
2022-09-12T16:52:21.760Z,1.50
2022-09-12T16:55:23.406Z,1.88
2022-09-12T16:58:25.229Z,1.83
2022-09-12T17:01:27.528Z,1.83
2022-09-12T17:04:29.371Z,1.80
2022-09-12T17:07:31.055Z,1.60
2022-09-12T17:10:33.045Z,2.00
2022-09-12T17:14:00.175Z,1.60
2022-09-12T17:16:58.914Z,1.90
2022-09-12T17:29:13.724Z,1.65
2022-09-12T17:32:17.551Z,1.50
2022-09-12T17:35:19.369Z,1.80
2022-09-12T17:38:25.130Z,1.60
2022-09-12T17:41:31.597Z,2.08
2022-09-12T17:44:34.406Z,2.25
2022-09-12T17:47:36.071Z,2.17
2022-09-12T17:50:39.576Z,1.73
2022-09-12T17:53:42.888Z,2.47
2022-09-12T17:56:46.525Z,2.00
2022-09-12T17:59:48.298Z,1.90
2022-09-12T18:02:50.619Z,2.40
2022-09-12T18:05:54.828Z,2.20
2022-09-12T18:09:01.035Z,2.58
2022-09-12T18:12:02.806Z,2.10
2022-09-12T18:15:04.741Z,2.20
2022-09-12T18:22:28.667Z,2.40
2022-09-12T18:25:30.321Z,2.50
2022-09-12T18:28:33.848Z,3.17
2022-09-12T18:31:35.863Z,3.13
2022-09-12T18:34:37.967Z,3.43
2022-09-12T18:37:43.816Z,2.20
2022-09-12T18:40:45.529Z,2.92
2022-09-12T18:43:47.740Z,2.72
2022-09-12T18:46:49.540Z,2.73
2022-09-12T18:49:51.254Z,2.93
2022-09-12T18:52:56.715Z,2.50
2022-09-12T18:56:10.562Z,3.00
2022-09-12T18:59:15.404Z,3.08
2022-09-12T19:02:17.113Z,2.83
2022-09-12T19:05:18.798Z,2.50
2022-09-12T19:08:20.447Z,2.60
2022-09-12T19:11:22.984Z,2.80
2022-09-12T19:14:26.574Z,3.20
2022-09-12T19:17:28.449Z,3.00
2022-09-12T19:20:30.180Z,2.63
2022-09-12T19:23:32.977Z,2.80
2022-09-12T19:26:36.080Z,3.03
2022-09-12T19:29:37.723Z,2.77
2022-09-12T19:32:39.409Z,2.80
2022-09-12T19:35:41.070Z,2.63
2022-09-12T19:38:42.717Z,2.67
2022-09-12T19:41:44.649Z,2.92
2022-09-12T19:44:46.358Z,3.37
2022-09-12T19:47:48.309Z,3.37
2022-09-12T19:50:50.546Z,2.63
2022-09-12T19:53:52.514Z,2.87
2022-09-12T19:56:54.286Z,2.87
2022-09-12T19:59:55.924Z,3.10
2022-09-12T20:02:57.577Z,3.00
2022-09-12T20:06:06.943Z,3.07
2022-09-12T20:09:09.009Z,3.13
2022-09-12T20:12:11.048Z,3.10
2022-09-12T20:15:12.820Z,3.23
2022-09-12T20:18:14.441Z,3.17
2022-09-12T20:21:18.528Z,3.20
2022-09-12T20:29:08.573Z,3.27
2022-09-12T20:32:10.219Z,2.97
2022-09-12T20:35:11.924Z,3.27
2022-09-12T20:38:13.574Z,2.57
2022-09-12T20:41:15.774Z,3.13
2022-09-12T20:44:17.644Z,3.10
2022-09-12T20:47:19.337Z,2.73
2022-09-12T20:50:20.997Z,3.20
2022-09-12T20:53:22.637Z,2.70
2022-09-12T20:56:26.531Z,3.53
2022-09-12T20:59:28.181Z,3.30
2022-09-12T21:02:30.013Z,3.40
2022-09-12T21:05:31.797Z,3.40
2022-09-12T21:08:34.129Z,3.23
2022-09-12T21:11:35.829Z,3.20
2022-09-12T21:14:37.494Z,3.70
2022-09-12T21:17:39.395Z,3.37
2022-09-12T21:20:41.068Z,3.80
2022-09-12T21:23:42.796Z,3.43
2022-09-12T21:26:44.493Z,3.23
2022-09-12T21:29:46.168Z,3.00
2022-09-12T21:32:47.941Z,2.80
2022-09-12T21:35:50.154Z,3.37
2022-09-12T21:38:51.817Z,3.57
2022-09-12T21:41:53.486Z,3.20
2022-09-12T21:44:55.309Z,4.27
2022-09-12T21:47:57.593Z,3.80
2022-09-12T21:51:00.014Z,3.07
2022-09-12T21:54:01.762Z,3.50
2022-09-12T21:57:03.561Z,3.90
2022-09-12T22:00:08.482Z,3.80
2022-09-12T22:03:11.478Z,4.13
2022-09-12T22:06:22.411Z,3.53
2022-09-12T22:09:25.444Z,3.90
2022-09-12T22:12:28.643Z,3.50
2022-09-12T22:15:45.672Z,3.70
2022-09-12T22:18:47.373Z,3.97
2022-09-12T22:22:07.881Z,3.73
2022-09-12T22:25:11.661Z,3.53
2022-09-12T22:28:13.726Z,3.57
2022-09-12T22:31:16.305Z,3.20
2022-09-12T22:34:17.986Z,3.67
2022-09-12T22:37:20.718Z,3.73
2022-09-12T22:40:22.456Z,3.10
2022-09-12T22:43:24.398Z,2.93
2022-09-12T22:46:26.373Z,3.33
2022-09-12T22:49:28.099Z,3.43
2022-09-12T22:52:29.795Z,3.23
2022-09-12T22:55:31.483Z,3.27
2022-09-12T23:03:14.674Z,3.60
2022-09-12T23:06:53.435Z,3.40
2022-09-12T23:10:45.151Z,3.23
2022-09-12T23:13:48.712Z,3.57
2022-09-12T23:16:50.432Z,3.97
2022-09-12T23:19:52.495Z,4.00
2022-09-12T23:22:54.727Z,3.33
2022-09-12T23:26:13.588Z,3.30
2022-09-12T23:29:15.595Z,3.57
2022-09-12T23:32:17.541Z,4.20
2022-09-12T23:35:19.620Z,3.20
2022-09-12T23:38:21.251Z,3.37
2022-09-12T23:41:23.593Z,3.63
2022-09-12T23:44:25.258Z,3.47
2022-09-12T23:47:26.900Z,3.53
2022-09-12T23:50:28.665Z,4.07
2022-09-12T23:53:30.967Z,3.97
2022-09-12T23:56:32.636Z,3.53
